sensor_id;sensor_type;location;lat;lon;timestamp;P1;durP1;ratioP1;P2;durP2;ratioP2
14251;SDS011;7210;51.502;10.722;2023-07-13T00:01:34;2.77;;;1.87;;
14251;SDS011;7210;51.502;10.722;2023-07-13T00:04:04;2.53;;;1.90;;
14251;SDS011;7210;51.502;10.722;2023-07-13T00:06:31;4.33;;;2.00;;
14251;SDS011;7210;51.502;10.722;2023-07-13T00:09:04;2.20;;;2.00;;
14251;SDS011;7210;51.502;10.722;2023-07-13T00:11:31;4.97;;;2.03;;
14251;SDS011;7210;51.502;10.722;2023-07-13T00:14:00;3.03;;;2.20;;
14251;SDS011;7210;51.502;10.722;2023-07-13T00:16:28;7.37;;;2.53;;
14251;SDS011;7210;51.502;10.722;2023-07-13T00:18:55;4.97;;;2.40;;
14251;SDS011;7210;51.502;10.722;2023-07-13T00:21:25;3.70;;;2.40;;
14251;SDS011;7210;51.502;10.722;2023-07-13T00:23:58;3.83;;;2.00;;
14251;SDS011;7210;51.502;10.722;2023-07-13T00:26:26;2.20;;;2.00;;
14251;SDS011;7210;51.502;10.722;2023-07-13T00:28:58;3.93;;;2.00;;
14251;SDS011;7210;51.502;10.722;2023-07-13T00:31:40;3.03;;;2.27;;
14251;SDS011;7210;51.502;10.722;2023-07-13T00:37:07;2.97;;;2.33;;
14251;SDS011;7210;51.502;10.722;2023-07-13T00:39:46;2.67;;;1.90;;
14251;SDS011;7210;51.502;10.722;2023-07-13T00:42:13;3.80;;;1.90;;
14251;SDS011;7210;51.502;10.722;2023-07-13T00:47:34;4.30;;;2.17;;
14251;SDS011;7210;51.502;10.722;2023-07-13T00:50:04;3.30;;;2.23;;
14251;SDS011;7210;51.502;10.722;2023-07-13T00:52:37;2.97;;;2.37;;
14251;SDS011;7210;51.502;10.722;2023-07-13T00:55:16;3.50;;;2.20;;
14251;SDS011;7210;51.502;10.722;2023-07-13T00:57:45;3.07;;;2.37;;
14251;SDS011;7210;51.502;10.722;2023-07-13T01:00:13;3.10;;;2.20;;
14251;SDS011;7210;51.502;10.722;2023-07-13T01:02:46;5.90;;;2.30;;
14251;SDS011;7210;51.502;10.722;2023-07-13T01:05:28;3.20;;;2.10;;
14251;SDS011;7210;51.502;10.722;2023-07-13T01:07:55;3.77;;;2.33;;
14251;SDS011;7210;51.502;10.722;2023-07-13T01:10:22;3.60;;;1.87;;
14251;SDS011;7210;51.502;10.722;2023-07-13T01:12:58;2.90;;;1.93;;
14251;SDS011;7210;51.502;10.722;2023-07-13T01:15:42;3.73;;;2.20;;
14251;SDS011;7210;51.502;10.722;2023-07-13T01:18:12;4.07;;;2.30;;
14251;SDS011;7210;51.502;10.722;2023-07-13T01:20:50;3.17;;;2.07;;
14251;SDS011;7210;51.502;10.722;2023-07-13T01:23:19;4.23;;;2.20;;
14251;SDS011;7210;51.502;10.722;2023-07-13T01:25:58;3.63;;;2.30;;
14251;SDS011;7210;51.502;10.722;2023-07-13T01:28:26;3.93;;;2.30;;
14251;SDS011;7210;51.502;10.722;2023-07-13T01:30:55;4.30;;;2.40;;
14251;SDS011;7210;51.502;10.722;2023-07-13T01:33:24;3.37;;;2.47;;
14251;SDS011;7210;51.502;10.722;2023-07-13T01:35:54;3.17;;;2.23;;
14251;SDS011;7210;51.502;10.722;2023-07-13T01:38:23;3.13;;;2.20;;
14251;SDS011;7210;51.502;10.722;2023-07-13T01:40:51;2.43;;;2.10;;
14251;SDS011;7210;51.502;10.722;2023-07-13T01:43:22;2.97;;;2.30;;
14251;SDS011;7210;51.502;10.722;2023-07-13T01:45:49;3.10;;;2.17;;
14251;SDS011;7210;51.502;10.722;2023-07-13T01:48:16;4.80;;;2.47;;
14251;SDS011;7210;51.502;10.722;2023-07-13T01:50:44;3.13;;;2.50;;
14251;SDS011;7210;51.502;10.722;2023-07-13T01:53:13;4.27;;;2.53;;
14251;SDS011;7210;51.502;10.722;2023-07-13T01:55:46;2.73;;;2.33;;
14251;SDS011;7210;51.502;10.722;2023-07-13T01:58:16;4.23;;;2.70;;
14251;SDS011;7210;51.502;10.722;2023-07-13T02:00:47;3.13;;;2.43;;
14251;SDS011;7210;51.502;10.722;2023-07-13T02:03:16;4.27;;;2.60;;
14251;SDS011;7210;51.502;10.722;2023-07-13T02:05:45;2.97;;;2.40;;
14251;SDS011;7210;51.502;10.722;2023-07-13T02:08:14;3.80;;;2.30;;
14251;SDS011;7210;51.502;10.722;2023-07-13T02:10:41;4.93;;;2.60;;
14251;SDS011;7210;51.502;10.722;2023-07-13T02:13:16;3.93;;;2.57;;
14251;SDS011;7210;51.502;10.722;2023-07-13T02:15:52;3.17;;;2.37;;
14251;SDS011;7210;51.502;10.722;2023-07-13T02:18:19;2.90;;;2.50;;
14251;SDS011;7210;51.502;10.722;2023-07-13T02:20:47;2.73;;;2.17;;
14251;SDS011;7210;51.502;10.722;2023-07-13T02:23:15;5.17;;;2.47;;
14251;SDS011;7210;51.502;10.722;2023-07-13T02:25:46;4.43;;;2.50;;
14251;SDS011;7210;51.502;10.722;2023-07-13T02:31:22;6.47;;;2.43;;
14251;SDS011;7210;51.502;10.722;2023-07-13T02:33:58;2.53;;;2.30;;
14251;SDS011;7210;51.502;10.722;2023-07-13T02:36:25;4.07;;;2.30;;
14251;SDS011;7210;51.502;10.722;2023-07-13T02:38:53;3.30;;;2.50;;
14251;SDS011;7210;51.502;10.722;2023-07-13T02:41:21;3.87;;;2.60;;
14251;SDS011;7210;51.502;10.722;2023-07-13T02:43:48;3.23;;;2.50;;
14251;SDS011;7210;51.502;10.722;2023-07-13T02:46:22;2.90;;;2.40;;
14251;SDS011;7210;51.502;10.722;2023-07-13T02:48:51;3.73;;;2.43;;
14251;SDS011;7210;51.502;10.722;2023-07-13T02:51:22;4.73;;;2.53;;
14251;SDS011;7210;51.502;10.722;2023-07-13T02:53:49;4.37;;;2.53;;
14251;SDS011;7210;51.502;10.722;2023-07-13T02:56:25;4.10;;;2.77;;
14251;SDS011;7210;51.502;10.722;2023-07-13T02:58:58;3.03;;;2.53;;
14251;SDS011;7210;51.502;10.722;2023-07-13T03:01:25;3.37;;;2.50;;
14251;SDS011;7210;51.502;10.722;2023-07-13T03:04:04;3.93;;;3.00;;
14251;SDS011;7210;51.502;10.722;2023-07-13T03:06:34;4.20;;;3.00;;
14251;SDS011;7210;51.502;10.722;2023-07-13T03:09:02;2.60;;;2.17;;
14251;SDS011;7210;51.502;10.722;2023-07-13T03:11:34;2.83;;;2.30;;
14251;SDS011;7210;51.502;10.722;2023-07-13T03:14:12;2.57;;;2.37;;
14251;SDS011;7210;51.502;10.722;2023-07-13T03:16:46;4.10;;;2.70;;
14251;SDS011;7210;51.502;10.722;2023-07-13T03:19:14;3.33;;;2.53;;
14251;SDS011;7210;51.502;10.722;2023-07-13T03:21:52;3.83;;;2.30;;
14251;SDS011;7210;51.502;10.722;2023-07-13T03:24:19;3.50;;;2.70;;
14251;SDS011;7210;51.502;10.722;2023-07-13T03:26:51;4.40;;;2.60;;
14251;SDS011;7210;51.502;10.722;2023-07-13T03:29:22;3.80;;;3.17;;
14251;SDS011;7210;51.502;10.722;2023-07-13T03:31:52;3.90;;;3.30;;
14251;SDS011;7210;51.502;10.722;2023-07-13T03:34:21;3.60;;;2.73;;
14251;SDS011;7210;51.502;10.722;2023-07-13T03:36:49;4.23;;;2.93;;
14251;SDS011;7210;51.502;10.722;2023-07-13T03:39:22;5.00;;;2.90;;
14251;SDS011;7210;51.502;10.722;2023-07-13T03:41:54;5.97;;;3.10;;
14251;SDS011;7210;51.502;10.722;2023-07-13T03:44:22;4.97;;;3.40;;
14251;SDS011;7210;51.502;10.722;2023-07-13T03:46:58;6.60;;;3.00;;
14251;SDS011;7210;51.502;10.722;2023-07-13T03:49:25;4.53;;;3.20;;
14251;SDS011;7210;51.502;10.722;2023-07-13T03:51:58;6.40;;;3.80;;
14251;SDS011;7210;51.502;10.722;2023-07-13T03:54:25;5.23;;;3.13;;
14251;SDS011;7210;51.502;10.722;2023-07-13T03:57:11;6.07;;;2.90;;
14251;SDS011;7210;51.502;10.722;2023-07-13T03:59:38;6.50;;;2.90;;
14251;SDS011;7210;51.502;10.722;2023-07-13T04:02:07;5.33;;;3.30;;
14251;SDS011;7210;51.502;10.722;2023-07-13T04:04:40;5.43;;;3.20;;
14251;SDS011;7210;51.502;10.722;2023-07-13T04:07:07;4.00;;;3.00;;
14251;SDS011;7210;51.502;10.722;2023-07-13T04:09:37;5.00;;;3.30;;
14251;SDS011;7210;51.502;10.722;2023-07-13T04:12:04;4.37;;;3.40;;
14251;SDS011;7210;51.502;10.722;2023-07-13T04:14:34;4.23;;;3.10;;
14251;SDS011;7210;51.502;10.722;2023-07-13T04:17:01;6.30;;;3.60;;
14251;SDS011;7210;51.502;10.722;2023-07-13T04:19:28;4.30;;;3.20;;
14251;SDS011;7210;51.502;10.722;2023-07-13T04:21:56;3.80;;;3.23;;
14251;SDS011;7210;51.502;10.722;2023-07-13T04:24:23;3.90;;;3.53;;
14251;SDS011;7210;51.502;10.722;2023-07-13T04:26:58;4.23;;;3.30;;
14251;SDS011;7210;51.502;10.722;2023-07-13T04:29:26;4.37;;;3.47;;
14251;SDS011;7210;51.502;10.722;2023-07-13T04:31:55;4.27;;;3.43;;
14251;SDS011;7210;51.502;10.722;2023-07-13T04:34:28;4.83;;;3.77;;
14251;SDS011;7210;51.502;10.722;2023-07-13T04:37:04;4.13;;;3.10;;
14251;SDS011;7210;51.502;10.722;2023-07-13T04:39:32;14.50;;;3.53;;
14251;SDS011;7210;51.502;10.722;2023-07-13T04:41:59;8.30;;;3.47;;
14251;SDS011;7210;51.502;10.722;2023-07-13T04:44:26;5.53;;;3.70;;
14251;SDS011;7210;51.502;10.722;2023-07-13T04:46:55;4.87;;;3.47;;
14251;SDS011;7210;51.502;10.722;2023-07-13T04:49:22;3.60;;;3.23;;
14251;SDS011;7210;51.502;10.722;2023-07-13T04:51:52;5.33;;;3.53;;
14251;SDS011;7210;51.502;10.722;2023-07-13T04:54:22;5.80;;;3.37;;
14251;SDS011;7210;51.502;10.722;2023-07-13T04:56:52;5.00;;;3.30;;
14251;SDS011;7210;51.502;10.722;2023-07-13T04:59:19;4.30;;;3.90;;
14251;SDS011;7210;51.502;10.722;2023-07-13T05:01:52;8.17;;;3.80;;
14251;SDS011;7210;51.502;10.722;2023-07-13T05:07:16;3.90;;;3.57;;
14251;SDS011;7210;51.502;10.722;2023-07-13T05:09:43;7.83;;;3.33;;
14251;SDS011;7210;51.502;10.722;2023-07-13T05:12:09;7.03;;;3.60;;
14251;SDS011;7210;51.502;10.722;2023-07-13T05:14:37;4.90;;;3.47;;
14251;SDS011;7210;51.502;10.722;2023-07-13T05:17:04;7.13;;;3.63;;
14251;SDS011;7210;51.502;10.722;2023-07-13T05:19:32;5.03;;;3.50;;
14251;SDS011;7210;51.502;10.722;2023-07-13T05:22:01;5.17;;;3.07;;
14251;SDS011;7210;51.502;10.722;2023-07-13T05:24:29;4.00;;;3.30;;
14251;SDS011;7210;51.502;10.722;2023-07-13T05:26:56;5.13;;;3.43;;
14251;SDS011;7210;51.502;10.722;2023-07-13T05:29:24;5.80;;;3.43;;
14251;SDS011;7210;51.502;10.722;2023-07-13T05:31:52;4.73;;;3.53;;
14251;SDS011;7210;51.502;10.722;2023-07-13T05:34:34;5.77;;;3.83;;
14251;SDS011;7210;51.502;10.722;2023-07-13T05:37:17;7.37;;;3.50;;
14251;SDS011;7210;51.502;10.722;2023-07-13T05:42:34;4.30;;;3.37;;
14251;SDS011;7210;51.502;10.722;2023-07-13T05:45:04;3.93;;;3.53;;
14251;SDS011;7210;51.502;10.722;2023-07-13T05:47:32;4.80;;;3.50;;
14251;SDS011;7210;51.502;10.722;2023-07-13T05:49:59;4.20;;;3.50;;
14251;SDS011;7210;51.502;10.722;2023-07-13T05:52:28;5.97;;;3.70;;
14251;SDS011;7210;51.502;10.722;2023-07-13T05:54:56;6.53;;;4.37;;
14251;SDS011;7210;51.502;10.722;2023-07-13T05:57:28;5.30;;;3.60;;
14251;SDS011;7210;51.502;10.722;2023-07-13T05:59:58;6.37;;;3.60;;
14251;SDS011;7210;51.502;10.722;2023-07-13T06:02:25;5.03;;;3.20;;
14251;SDS011;7210;51.502;10.722;2023-07-13T06:04:52;4.50;;;2.80;;
14251;SDS011;7210;51.502;10.722;2023-07-13T06:07:22;5.60;;;3.20;;
14251;SDS011;7210;51.502;10.722;2023-07-13T06:09:50;5.50;;;3.03;;
14251;SDS011;7210;51.502;10.722;2023-07-13T06:12:18;5.87;;;3.20;;
14251;SDS011;7210;51.502;10.722;2023-07-13T06:14:52;3.67;;;3.23;;
14251;SDS011;7210;51.502;10.722;2023-07-13T06:17:22;7.23;;;2.90;;
14251;SDS011;7210;51.502;10.722;2023-07-13T06:19:52;5.80;;;3.20;;
14251;SDS011;7210;51.502;10.722;2023-07-13T06:22:19;6.87;;;3.30;;
14251;SDS011;7210;51.502;10.722;2023-07-13T06:24:54;6.73;;;3.10;;
14251;SDS011;7210;51.502;10.722;2023-07-13T06:27:21;4.00;;;2.73;;
14251;SDS011;7210;51.502;10.722;2023-07-13T06:29:49;5.33;;;3.33;;
14251;SDS011;7210;51.502;10.722;2023-07-13T06:32:16;4.83;;;3.20;;
14251;SDS011;7210;51.502;10.722;2023-07-13T06:34:46;6.43;;;3.20;;
14251;SDS011;7210;51.502;10.722;2023-07-13T06:37:16;5.33;;;3.10;;
14251;SDS011;7210;51.502;10.722;2023-07-13T06:39:53;4.53;;;2.93;;
14251;SDS011;7210;51.502;10.722;2023-07-13T06:42:21;6.63;;;3.00;;
14251;SDS011;7210;51.502;10.722;2023-07-13T06:44:48;4.83;;;2.43;;
14251;SDS011;7210;51.502;10.722;2023-07-13T06:47:34;5.10;;;2.30;;
14251;SDS011;7210;51.502;10.722;2023-07-13T06:50:04;6.50;;;2.30;;
14251;SDS011;7210;51.502;10.722;2023-07-13T06:52:32;6.60;;;2.30;;
14251;SDS011;7210;51.502;10.722;2023-07-13T06:55:01;5.07;;;2.43;;
14251;SDS011;7210;51.502;10.722;2023-07-13T06:57:29;5.90;;;2.47;;
14251;SDS011;7210;51.502;10.722;2023-07-13T06:59:58;5.20;;;2.53;;
14251;SDS011;7210;51.502;10.722;2023-07-13T07:02:34;8.53;;;2.77;;
14251;SDS011;7210;51.502;10.722;2023-07-13T07:05:01;4.77;;;2.40;;
14251;SDS011;7210;51.502;10.722;2023-07-13T07:07:34;7.57;;;2.30;;
14251;SDS011;7210;51.502;10.722;2023-07-13T07:10:03;4.80;;;2.20;;
14251;SDS011;7210;51.502;10.722;2023-07-13T07:12:31;5.40;;;2.37;;
14251;SDS011;7210;51.502;10.722;2023-07-13T07:15:04;6.93;;;2.00;;
14251;SDS011;7210;51.502;10.722;2023-07-13T07:17:32;4.63;;;2.33;;
14251;SDS011;7210;51.502;10.722;2023-07-13T07:20:10;4.57;;;2.43;;
14251;SDS011;7210;51.502;10.722;2023-07-13T07:22:38;5.47;;;1.93;;
14251;SDS011;7210;51.502;10.722;2023-07-13T07:25:07;6.73;;;2.27;;
14251;SDS011;7210;51.502;10.722;2023-07-13T07:27:46;5.37;;;1.77;;
14251;SDS011;7210;51.502;10.722;2023-07-13T07:30:22;4.37;;;2.17;;
14251;SDS011;7210;51.502;10.722;2023-07-13T07:32:49;6.63;;;2.17;;
14251;SDS011;7210;51.502;10.722;2023-07-13T07:35:16;5.37;;;1.87;;
14251;SDS011;7210;51.502;10.722;2023-07-13T07:37:44;6.80;;;2.00;;
14251;SDS011;7210;51.502;10.722;2023-07-13T07:40:12;8.23;;;2.30;;
14251;SDS011;7210;51.502;10.722;2023-07-13T07:42:40;4.57;;;2.10;;
14251;SDS011;7210;51.502;10.722;2023-07-13T07:45:08;5.70;;;2.40;;
14251;SDS011;7210;51.502;10.722;2023-07-13T07:47:40;5.03;;;2.00;;
14251;SDS011;7210;51.502;10.722;2023-07-13T07:50:10;4.27;;;2.10;;
14251;SDS011;7210;51.502;10.722;2023-07-13T07:52:37;5.83;;;2.30;;
14251;SDS011;7210;51.502;10.722;2023-07-13T07:55:05;6.70;;;2.13;;
14251;SDS011;7210;51.502;10.722;2023-07-13T07:57:35;4.60;;;2.00;;
14251;SDS011;7210;51.502;10.722;2023-07-13T08:02:52;2.80;;;1.60;;
14251;SDS011;7210;51.502;10.722;2023-07-13T08:05:19;5.10;;;1.70;;
14251;SDS011;7210;51.502;10.722;2023-07-13T08:10:36;5.50;;;1.80;;
14251;SDS011;7210;51.502;10.722;2023-07-13T08:13:18;4.63;;;2.03;;
14251;SDS011;7210;51.502;10.722;2023-07-13T08:15:52;2.53;;;1.53;;
14251;SDS011;7210;51.502;10.722;2023-07-13T08:18:19;5.33;;;1.60;;
14251;SDS011;7210;51.502;10.722;2023-07-13T08:20:52;4.97;;;1.67;;
14251;SDS011;7210;51.502;10.722;2023-07-13T08:23:22;4.27;;;1.83;;
14251;SDS011;7210;51.502;10.722;2023-07-13T08:25:58;3.37;;;1.60;;
14251;SDS011;7210;51.502;10.722;2023-07-13T08:28:28;2.83;;;1.50;;
14251;SDS011;7210;51.502;10.722;2023-07-13T08:31:10;3.73;;;1.80;;
14251;SDS011;7210;51.502;10.722;2023-07-13T08:33:40;4.40;;;1.60;;
14251;SDS011;7210;51.502;10.722;2023-07-13T08:36:07;3.83;;;1.80;;
14251;SDS011;7210;51.502;10.722;2023-07-13T08:38:52;2.90;;;1.47;;
14251;SDS011;7210;51.502;10.722;2023-07-13T08:41:19;3.17;;;2.10;;
14251;SDS011;7210;51.502;10.722;2023-07-13T08:43:49;1.87;;;1.50;;
14251;SDS011;7210;51.502;10.722;2023-07-13T08:49:10;3.27;;;1.53;;
14251;SDS011;7210;51.502;10.722;2023-07-13T08:51:43;2.57;;;1.50;;
14251;SDS011;7210;51.502;10.722;2023-07-13T08:54:23;3.67;;;1.60;;
14251;SDS011;7210;51.502;10.722;2023-07-13T08:57:01;3.43;;;1.40;;
14251;SDS011;7210;51.502;10.722;2023-07-13T08:59:47;2.57;;;1.40;;
14251;SDS011;7210;51.502;10.722;2023-07-13T09:02:18;2.57;;;1.40;;
14251;SDS011;7210;51.502;10.722;2023-07-13T09:04:59;4.47;;;1.43;;
14251;SDS011;7210;51.502;10.722;2023-07-13T09:07:33;2.60;;;1.33;;
14251;SDS011;7210;51.502;10.722;2023-07-13T09:10:20;3.20;;;1.40;;
14251;SDS011;7210;51.502;10.722;2023-07-13T09:13:02;3.23;;;1.40;;
14251;SDS011;7210;51.502;10.722;2023-07-13T09:15:46;3.73;;;1.67;;
14251;SDS011;7210;51.502;10.722;2023-07-13T09:18:16;3.57;;;1.30;;
14251;SDS011;7210;51.502;10.722;2023-07-13T09:20:52;2.27;;;1.30;;
14251;SDS011;7210;51.502;10.722;2023-07-13T09:23:24;2.90;;;1.30;;
14251;SDS011;7210;51.502;10.722;2023-07-13T09:26:00;3.00;;;1.27;;
14251;SDS011;7210;51.502;10.722;2023-07-13T09:28:33;2.30;;;1.40;;
14251;SDS011;7210;51.502;10.722;2023-07-13T09:31:09;2.00;;;1.37;;
14251;SDS011;7210;51.502;10.722;2023-07-13T09:33:42;4.03;;;1.20;;
14251;SDS011;7210;51.502;10.722;2023-07-13T09:36:23;3.33;;;1.60;;
14251;SDS011;7210;51.502;10.722;2023-07-13T09:38:57;2.03;;;1.40;;
14251;SDS011;7210;51.502;10.722;2023-07-13T09:41:33;5.07;;;1.30;;
14251;SDS011;7210;51.502;10.722;2023-07-13T09:44:27;6.40;;;1.40;;
14251;SDS011;7210;51.502;10.722;2023-07-13T09:46:58;4.00;;;1.40;;
14251;SDS011;7210;51.502;10.722;2023-07-13T09:49:28;3.17;;;1.37;;
14251;SDS011;7210;51.502;10.722;2023-07-13T09:52:00;4.97;;;1.60;;
14251;SDS011;7210;51.502;10.722;2023-07-13T09:54:35;4.27;;;1.60;;
14251;SDS011;7210;51.502;10.722;2023-07-13T09:57:03;2.90;;;1.43;;
14251;SDS011;7210;51.502;10.722;2023-07-13T09:59:47;2.53;;;1.37;;
14251;SDS011;7210;51.502;10.722;2023-07-13T10:02:27;1.87;;;1.20;;
14251;SDS011;7210;51.502;10.722;2023-07-13T10:04:59;3.13;;;1.37;;
14251;SDS011;7210;51.502;10.722;2023-07-13T10:07:38;6.53;;;1.50;;
14251;SDS011;7210;51.502;10.722;2023-07-13T10:10:13;2.87;;;1.50;;
14251;SDS011;7210;51.502;10.722;2023-07-13T10:12:52;2.73;;;1.50;;
14251;SDS011;7210;51.502;10.722;2023-07-13T10:15:21;4.70;;;1.40;;
14251;SDS011;7210;51.502;10.722;2023-07-13T10:17:59;2.80;;;1.40;;
14251;SDS011;7210;51.502;10.722;2023-07-13T10:20:27;3.03;;;1.50;;
14251;SDS011;7210;51.502;10.722;2023-07-13T10:22:58;3.77;;;1.60;;
14251;SDS011;7210;51.502;10.722;2023-07-13T10:25:32;2.30;;;1.50;;
14251;SDS011;7210;51.502;10.722;2023-07-13T10:28:04;3.23;;;1.50;;
14251;SDS011;7210;51.502;10.722;2023-07-13T10:30:46;3.00;;;1.53;;
14251;SDS011;7210;51.502;10.722;2023-07-13T10:33:20;3.22;;;1.50;;
14251;SDS011;7210;51.502;10.722;2023-07-13T10:35:53;3.57;;;1.40;;
14251;SDS011;7210;51.502;10.722;2023-07-13T10:38:40;2.43;;;1.50;;
14251;SDS011;7210;51.502;10.722;2023-07-13T10:41:10;3.53;;;1.40;;
14251;SDS011;7210;51.502;10.722;2023-07-13T10:43:42;2.08;;;1.30;;
14251;SDS011;7210;51.502;10.722;2023-07-13T10:46:15;2.22;;;1.42;;
14251;SDS011;7210;51.502;10.722;2023-07-13T10:48:49;2.78;;;1.40;;
14251;SDS011;7210;51.502;10.722;2023-07-13T10:51:22;1.85;;;1.48;;
14251;SDS011;7210;51.502;10.722;2023-07-13T10:56:43;3.13;;;1.58;;
14251;SDS011;7210;51.502;10.722;2023-07-13T10:59:12;3.38;;;1.40;;
14251;SDS011;7210;51.502;10.722;2023-07-13T11:01:48;4.20;;;1.42;;
14251;SDS011;7210;51.502;10.722;2023-07-13T11:04:23;3.23;;;1.40;;
14251;SDS011;7210;51.502;10.722;2023-07-13T11:06:56;2.90;;;1.33;;
14251;SDS011;7210;51.502;10.722;2023-07-13T11:09:37;2.47;;;1.30;;
14251;SDS011;7210;51.502;10.722;2023-07-13T11:12:07;2.13;;;1.40;;
14251;SDS011;7210;51.502;10.722;2023-07-13T11:18:00;3.60;;;1.30;;
14251;SDS011;7210;51.502;10.722;2023-07-13T11:20:33;2.53;;;1.38;;
14251;SDS011;7210;51.502;10.722;2023-07-13T11:29:24;2.43;;;1.57;;
14251;SDS011;7210;51.502;10.722;2023-07-13T11:34:56;4.07;;;1.50;;
14251;SDS011;7210;51.502;10.722;2023-07-13T11:37:35;2.30;;;1.40;;
14251;SDS011;7210;51.502;10.722;2023-07-13T11:40:05;4.07;;;1.40;;
14251;SDS011;7210;51.502;10.722;2023-07-13T11:42:39;5.70;;;1.57;;
14251;SDS011;7210;51.502;10.722;2023-07-13T11:45:14;2.60;;;1.60;;
14251;SDS011;7210;51.502;10.722;2023-07-13T11:47:48;2.40;;;1.17;;
14251;SDS011;7210;51.502;10.722;2023-07-13T11:50:17;2.60;;;1.20;;
14251;SDS011;7210;51.502;10.722;2023-07-13T11:52:48;3.93;;;2.00;;
14251;SDS011;7210;51.502;10.722;2023-07-13T11:55:20;3.63;;;1.70;;
14251;SDS011;7210;51.502;10.722;2023-07-13T12:00:37;3.10;;;1.40;;
14251;SDS011;7210;51.502;10.722;2023-07-13T12:03:06;4.33;;;1.70;;
14251;SDS011;7210;51.502;10.722;2023-07-13T12:05:54;3.37;;;1.53;;
14251;SDS011;7210;51.502;10.722;2023-07-13T12:08:25;1.93;;;1.30;;
14251;SDS011;7210;51.502;10.722;2023-07-13T12:11:03;3.80;;;1.23;;
14251;SDS011;7210;51.502;10.722;2023-07-13T12:13:37;2.20;;;1.57;;
14251;SDS011;7210;51.502;10.722;2023-07-13T12:16:11;2.63;;;1.43;;
14251;SDS011;7210;51.502;10.722;2023-07-13T12:18:59;2.37;;;1.30;;
14251;SDS011;7210;51.502;10.722;2023-07-13T12:21:30;3.47;;;1.05;;
14251;SDS011;7210;51.502;10.722;2023-07-13T12:24:01;1.70;;;1.38;;
14251;SDS011;7210;51.502;10.722;2023-07-13T12:26:31;2.20;;;1.15;;
14251;SDS011;7210;51.502;10.722;2023-07-13T12:28:59;2.35;;;1.30;;
14251;SDS011;7210;51.502;10.722;2023-07-13T12:31:35;2.08;;;1.10;;
14251;SDS011;7210;51.502;10.722;2023-07-13T12:34:08;2.70;;;1.30;;
14251;SDS011;7210;51.502;10.722;2023-07-13T12:36:40;1.27;;;1.17;;
14251;SDS011;7210;51.502;10.722;2023-07-13T12:39:18;2.95;;;1.40;;
14251;SDS011;7210;51.502;10.722;2023-07-13T12:41:52;2.70;;;1.63;;
14251;SDS011;7210;51.502;10.722;2023-07-13T12:44:22;2.83;;;1.50;;
14251;SDS011;7210;51.502;10.722;2023-07-13T12:46:57;3.17;;;1.20;;
14251;SDS011;7210;51.502;10.722;2023-07-13T12:49:40;3.92;;;1.38;;
14251;SDS011;7210;51.502;10.722;2023-07-13T12:52:16;2.83;;;1.50;;
14251;SDS011;7210;51.502;10.722;2023-07-13T12:54:55;3.67;;;1.40;;
14251;SDS011;7210;51.502;10.722;2023-07-13T12:57:28;2.57;;;1.33;;
14251;SDS011;7210;51.502;10.722;2023-07-13T12:59:58;7.07;;;1.90;;
14251;SDS011;7210;51.502;10.722;2023-07-13T13:02:28;3.37;;;1.63;;
14251;SDS011;7210;51.502;10.722;2023-07-13T13:05:04;3.43;;;1.37;;
14251;SDS011;7210;51.502;10.722;2023-07-13T13:07:32;1.97;;;1.40;;
14251;SDS011;7210;51.502;10.722;2023-07-13T13:10:10;2.83;;;1.47;;
14251;SDS011;7210;51.502;10.722;2023-07-13T13:12:40;2.27;;;1.40;;
14251;SDS011;7210;51.502;10.722;2023-07-13T13:15:08;2.30;;;1.27;;
14251;SDS011;7210;51.502;10.722;2023-07-13T13:17:36;5.17;;;1.50;;
14251;SDS011;7210;51.502;10.722;2023-07-13T13:20:11;1.83;;;1.38;;
14251;SDS011;7210;51.502;10.722;2023-07-13T13:22:41;3.38;;;1.23;;
14251;SDS011;7210;51.502;10.722;2023-07-13T13:25:11;3.22;;;1.40;;
14251;SDS011;7210;51.502;10.722;2023-07-13T13:27:40;3.72;;;1.30;;
14251;SDS011;7210;51.502;10.722;2023-07-13T13:30:17;2.67;;;1.48;;
14251;SDS011;7210;51.502;10.722;2023-07-13T13:32:45;2.95;;;1.55;;
14251;SDS011;7210;51.502;10.722;2023-07-13T13:35:19;2.50;;;1.50;;
14251;SDS011;7210;51.502;10.722;2023-07-13T13:37:58;1.95;;;1.35;;
14251;SDS011;7210;51.502;10.722;2023-07-13T13:40:27;2.42;;;1.38;;
14251;SDS011;7210;51.502;10.722;2023-07-13T13:42:58;1.88;;;1.33;;
14251;SDS011;7210;51.502;10.722;2023-07-13T13:45:28;2.70;;;1.10;;
14251;SDS011;7210;51.502;10.722;2023-07-13T13:47:55;2.53;;;1.30;;
14251;SDS011;7210;51.502;10.722;2023-07-13T13:50:28;1.95;;;1.35;;
14251;SDS011;7210;51.502;10.722;2023-07-13T13:53:04;3.42;;;1.67;;
14251;SDS011;7210;51.502;10.722;2023-07-13T13:55:35;2.45;;;1.30;;
14251;SDS011;7210;51.502;10.722;2023-07-13T13:58:04;2.65;;;1.30;;
14251;SDS011;7210;51.502;10.722;2023-07-13T14:00:31;3.80;;;1.38;;
14251;SDS011;7210;51.502;10.722;2023-07-13T14:02:58;4.10;;;1.30;;
14251;SDS011;7210;51.502;10.722;2023-07-13T14:05:26;2.45;;;1.15;;
14251;SDS011;7210;51.502;10.722;2023-07-13T14:07:58;2.15;;;1.35;;
14251;SDS011;7210;51.502;10.722;2023-07-13T14:10:25;2.20;;;1.25;;
14251;SDS011;7210;51.502;10.722;2023-07-13T14:12:55;2.38;;;1.10;;
14251;SDS011;7210;51.502;10.722;2023-07-13T14:15:34;3.22;;;1.45;;
14251;SDS011;7210;51.502;10.722;2023-07-13T14:18:01;4.63;;;1.40;;
14251;SDS011;7210;51.502;10.722;2023-07-13T14:20:29;3.83;;;1.38;;
14251;SDS011;7210;51.502;10.722;2023-07-13T14:22:56;1.70;;;1.20;;
14251;SDS011;7210;51.502;10.722;2023-07-13T14:25:24;3.80;;;1.40;;
14251;SDS011;7210;51.502;10.722;2023-07-13T14:27:53;2.40;;;1.40;;
14251;SDS011;7210;51.502;10.722;2023-07-13T14:30:34;1.73;;;1.45;;
14251;SDS011;7210;51.502;10.722;2023-07-13T14:33:04;2.65;;;1.25;;
14251;SDS011;7210;51.502;10.722;2023-07-13T14:35:40;2.33;;;1.45;;
14251;SDS011;7210;51.502;10.722;2023-07-13T14:38:09;2.20;;;1.40;;
14251;SDS011;7210;51.502;10.722;2023-07-13T14:40:46;2.45;;;1.55;;
14251;SDS011;7210;51.502;10.722;2023-07-13T14:43:23;3.92;;;1.80;;
14251;SDS011;7210;51.502;10.722;2023-07-13T14:45:58;3.53;;;1.53;;
14251;SDS011;7210;51.502;10.722;2023-07-13T14:48:25;3.73;;;1.50;;
14251;SDS011;7210;51.502;10.722;2023-07-13T14:51:10;3.50;;;1.50;;
14251;SDS011;7210;51.502;10.722;2023-07-13T14:53:52;3.53;;;1.60;;
14251;SDS011;7210;51.502;10.722;2023-07-13T14:56:28;2.43;;;1.63;;
14251;SDS011;7210;51.502;10.722;2023-07-13T14:58:57;2.60;;;1.47;;
14251;SDS011;7210;51.502;10.722;2023-07-13T15:01:28;5.07;;;2.00;;
14251;SDS011;7210;51.502;10.722;2023-07-13T15:03:56;4.10;;;1.60;;
14251;SDS011;7210;51.502;10.722;2023-07-13T15:06:25;7.93;;;2.50;;
14251;SDS011;7210;51.502;10.722;2023-07-13T15:09:04;6.80;;;1.90;;
14251;SDS011;7210;51.502;10.722;2023-07-13T15:11:40;3.20;;;1.60;;
14251;SDS011;7210;51.502;10.722;2023-07-13T15:14:08;4.23;;;1.90;;
14251;SDS011;7210;51.502;10.722;2023-07-13T15:16:46;3.07;;;1.67;;
14251;SDS011;7210;51.502;10.722;2023-07-13T15:19:22;3.00;;;1.77;;
14251;SDS011;7210;51.502;10.722;2023-07-13T15:21:52;4.00;;;1.80;;
14251;SDS011;7210;51.502;10.722;2023-07-13T15:24:22;2.88;;;1.50;;
14251;SDS011;7210;51.502;10.722;2023-07-13T15:26:50;3.80;;;1.50;;
14251;SDS011;7210;51.502;10.722;2023-07-13T15:29:23;2.65;;;1.70;;
14251;SDS011;7210;51.502;10.722;2023-07-13T15:31:51;3.10;;;1.70;;
14251;SDS011;7210;51.502;10.722;2023-07-13T15:34:23;1.88;;;1.25;;
14251;SDS011;7210;51.502;10.722;2023-07-13T15:36:52;3.23;;;1.30;;
14251;SDS011;7210;51.502;10.722;2023-07-13T15:39:19;4.43;;;1.50;;
14251;SDS011;7210;51.502;10.722;2023-07-13T15:41:47;2.80;;;1.40;;
14251;SDS011;7210;51.502;10.722;2023-07-13T15:44:22;1.60;;;1.30;;
14251;SDS011;7210;51.502;10.722;2023-07-13T15:47:04;2.00;;;1.50;;
14251;SDS011;7210;51.502;10.722;2023-07-13T15:49:32;2.15;;;1.42;;
14251;SDS011;7210;51.502;10.722;2023-07-13T15:52:00;2.83;;;1.70;;
14251;SDS011;7210;51.502;10.722;2023-07-13T15:54:27;1.98;;;1.50;;
14251;SDS011;7210;51.502;10.722;2023-07-13T15:57:00;3.03;;;1.67;;